Detroit, Oregon
Current Conditions -  °F | °C
As of 8:56 AM on Thursday 27 Nov 2014 (Local Time) from KSLE Reporting Station
Light Rain Light Rain  
Wind Chill: 53°   Ceiling: 5000
Heat Index: 53°   Visibility: 10mi
Dew Point: 50°   Wind: 8mph
Humidity: 89%   Direction: 160°SSE
Pressure: 30"   Gusts: NA
Location:  44.73°N, 122.15°W
Report Text: KSLE 271656Z 16007KT 10SM -RA OVC050 12/10 A3000 RMK AO2 SLP157 P0003 T01170100
Loading
Personal Weather Stations






























Interactive Weather Map New forecast layout! Learn more

10-Day Weather Forecast

Advertisements
Track Severe Weather on mobile